sensor_id;sensor_type;location;lat;lon;timestamp;P1;durP1;ratioP1;P2;durP2;ratioP2
735;SDS011;352;48.626;9.238;2023-04-03T00:01:44;5.38;;;4.10;;
735;SDS011;352;48.626;9.238;2023-04-03T00:04:10;7.70;;;4.60;;
735;SDS011;352;48.626;9.238;2023-04-03T00:06:38;4.05;;;3.75;;
735;SDS011;352;48.626;9.238;2023-04-03T00:09:05;4.90;;;4.00;;
735;SDS011;352;48.626;9.238;2023-04-03T00:11:32;4.50;;;4.10;;
735;SDS011;352;48.626;9.238;2023-04-03T00:14:06;5.20;;;4.18;;
735;SDS011;352;48.626;9.238;2023-04-03T00:16:35;4.97;;;4.10;;
735;SDS011;352;48.626;9.238;2023-04-03T00:19:02;6.68;;;4.25;;
735;SDS011;352;48.626;9.238;2023-04-03T00:21:29;5.82;;;4.50;;
735;SDS011;352;48.626;9.238;2023-04-03T00:23:57;4.90;;;4.40;;
735;SDS011;352;48.626;9.238;2023-04-03T00:26:23;4.80;;;4.35;;
735;SDS011;352;48.626;9.238;2023-04-03T00:28:50;4.65;;;4.35;;
735;SDS011;352;48.626;9.238;2023-04-03T00:31:17;4.25;;;3.95;;
735;SDS011;352;48.626;9.238;2023-04-03T00:33:43;9.43;;;4.93;;
735;SDS011;352;48.626;9.238;2023-04-03T00:36:10;5.00;;;4.60;;
735;SDS011;352;48.626;9.238;2023-04-03T00:38:43;5.15;;;4.47;;
735;SDS011;352;48.626;9.238;2023-04-03T00:41:11;5.55;;;4.90;;
735;SDS011;352;48.626;9.238;2023-04-03T00:43:38;5.00;;;4.35;;
735;SDS011;352;48.626;9.238;2023-04-03T00:46:04;4.80;;;4.50;;
735;SDS011;352;48.626;9.238;2023-04-03T00:48:36;5.13;;;4.63;;
735;SDS011;352;48.626;9.238;2023-04-03T00:51:06;4.65;;;4.35;;
735;SDS011;352;48.626;9.238;2023-04-03T00:53:39;4.70;;;4.30;;
735;SDS011;352;48.626;9.238;2023-04-03T00:56:11;6.80;;;5.05;;
735;SDS011;352;48.626;9.238;2023-04-03T00:58:42;4.80;;;4.30;;
735;SDS011;352;48.626;9.238;2023-04-03T01:01:16;5.47;;;4.10;;
735;SDS011;352;48.626;9.238;2023-04-03T01:03:47;4.20;;;3.83;;
735;SDS011;352;48.626;9.238;2023-04-03T01:06:20;4.68;;;4.30;;
735;SDS011;352;48.626;9.238;2023-04-03T01:08:53;5.25;;;4.65;;
735;SDS011;352;48.626;9.238;2023-04-03T01:11:23;5.65;;;4.60;;
735;SDS011;352;48.626;9.238;2023-04-03T01:13:49;4.45;;;4.15;;
735;SDS011;352;48.626;9.238;2023-04-03T01:16:16;5.13;;;4.45;;
735;SDS011;352;48.626;9.238;2023-04-03T01:18:43;4.88;;;4.38;;
735;SDS011;352;48.626;9.238;2023-04-03T01:24:12;5.85;;;4.32;;
735;SDS011;352;48.626;9.238;2023-04-03T01:26:49;4.97;;;4.50;;
735;SDS011;352;48.626;9.238;2023-04-03T01:29:16;5.50;;;4.90;;
735;SDS011;352;48.626;9.238;2023-04-03T01:31:49;5.30;;;4.18;;
735;SDS011;352;48.626;9.238;2023-04-03T01:34:16;4.90;;;4.22;;
735;SDS011;352;48.626;9.238;2023-04-03T01:36:43;4.70;;;4.30;;
735;SDS011;352;48.626;9.238;2023-04-03T01:39:10;4.95;;;4.45;;
735;SDS011;352;48.626;9.238;2023-04-03T01:41:38;4.75;;;4.35;;
735;SDS011;352;48.626;9.238;2023-04-03T01:44:05;5.25;;;4.00;;
735;SDS011;352;48.626;9.238;2023-04-03T01:46:31;4.75;;;4.30;;
735;SDS011;352;48.626;9.238;2023-04-03T01:49:00;4.53;;;4.13;;
735;SDS011;352;48.626;9.238;2023-04-03T01:51:27;4.28;;;3.95;;
735;SDS011;352;48.626;9.238;2023-04-03T01:53:53;4.72;;;4.22;;
735;SDS011;352;48.626;9.238;2023-04-03T01:56:20;4.53;;;4.13;;
735;SDS011;352;48.626;9.238;2023-04-03T01:58:47;4.50;;;4.07;;
735;SDS011;352;48.626;9.238;2023-04-03T02:01:14;4.85;;;4.45;;
735;SDS011;352;48.626;9.238;2023-04-03T02:03:41;4.80;;;4.40;;
735;SDS011;352;48.626;9.238;2023-04-03T02:06:09;6.20;;;4.60;;
735;SDS011;352;48.626;9.238;2023-04-03T02:08:35;4.78;;;4.30;;
735;SDS011;352;48.626;9.238;2023-04-03T02:11:02;5.03;;;4.53;;
735;SDS011;352;48.626;9.238;2023-04-03T02:13:29;4.80;;;4.40;;
735;SDS011;352;48.626;9.238;2023-04-03T02:15:55;6.20;;;4.35;;
735;SDS011;352;48.626;9.238;2023-04-03T02:18:22;6.22;;;4.88;;
735;SDS011;352;48.626;9.238;2023-04-03T02:20:49;4.78;;;4.38;;
735;SDS011;352;48.626;9.238;2023-04-03T02:23:17;4.95;;;4.55;;
735;SDS011;352;48.626;9.238;2023-04-03T02:25:44;5.70;;;4.65;;
735;SDS011;352;48.626;9.238;2023-04-03T02:28:10;4.72;;;4.32;;
735;SDS011;352;48.626;9.238;2023-04-03T02:30:37;4.30;;;3.90;;
735;SDS011;352;48.626;9.238;2023-04-03T02:33:04;5.28;;;4.80;;
735;SDS011;352;48.626;9.238;2023-04-03T02:35:30;5.30;;;4.80;;
735;SDS011;352;48.626;9.238;2023-04-03T02:37:57;4.72;;;4.32;;
735;SDS011;352;48.626;9.238;2023-04-03T02:40:25;4.32;;;4.03;;
735;SDS011;352;48.626;9.238;2023-04-03T02:42:52;4.93;;;4.25;;
735;SDS011;352;48.626;9.238;2023-04-03T02:45:18;4.68;;;4.28;;
735;SDS011;352;48.626;9.238;2023-04-03T02:47:45;5.10;;;4.63;;
735;SDS011;352;48.626;9.238;2023-04-03T02:50:12;5.93;;;4.22;;
735;SDS011;352;48.626;9.238;2023-04-03T02:52:39;4.30;;;4.00;;
735;SDS011;352;48.626;9.238;2023-04-03T02:55:06;4.47;;;4.07;;
735;SDS011;352;48.626;9.238;2023-04-03T02:57:34;4.32;;;3.90;;
735;SDS011;352;48.626;9.238;2023-04-03T03:00:01;4.07;;;3.78;;
735;SDS011;352;48.626;9.238;2023-04-03T03:02:28;4.47;;;4.07;;
735;SDS011;352;48.626;9.238;2023-04-03T03:04:55;5.40;;;4.78;;
735;SDS011;352;48.626;9.238;2023-04-03T03:07:22;4.20;;;3.90;;
735;SDS011;352;48.626;9.238;2023-04-03T03:09:48;4.78;;;4.10;;
735;SDS011;352;48.626;9.238;2023-04-03T03:12:15;4.40;;;4.10;;
735;SDS011;352;48.626;9.238;2023-04-03T03:14:47;4.93;;;4.43;;
735;SDS011;352;48.626;9.238;2023-04-03T03:17:14;4.65;;;3.97;;
735;SDS011;352;48.626;9.238;2023-04-03T03:19:41;4.10;;;3.70;;
735;SDS011;352;48.626;9.238;2023-04-03T03:22:07;4.18;;;3.80;;
735;SDS011;352;48.626;9.238;2023-04-03T03:24:34;4.90;;;4.50;;
735;SDS011;352;48.626;9.238;2023-04-03T03:27:01;4.60;;;3.95;;
735;SDS011;352;48.626;9.238;2023-04-03T03:29:28;4.57;;;4.00;;
735;SDS011;352;48.626;9.238;2023-04-03T03:31:56;4.72;;;4.32;;
735;SDS011;352;48.626;9.238;2023-04-03T03:34:23;5.55;;;4.22;;
735;SDS011;352;48.626;9.238;2023-04-03T03:36:49;4.47;;;4.07;;
735;SDS011;352;48.626;9.238;2023-04-03T03:39:16;4.72;;;3.60;;
735;SDS011;352;48.626;9.238;2023-04-03T03:41:43;4.32;;;3.90;;
735;SDS011;352;48.626;9.238;2023-04-03T03:44:10;4.45;;;4.03;;
735;SDS011;352;48.626;9.238;2023-04-03T03:46:36;4.65;;;4.25;;
735;SDS011;352;48.626;9.238;2023-04-03T03:49:04;4.40;;;4.00;;
735;SDS011;352;48.626;9.238;2023-04-03T03:51:31;4.55;;;3.70;;
735;SDS011;352;48.626;9.238;2023-04-03T03:53:58;4.55;;;3.97;;
735;SDS011;352;48.626;9.238;2023-04-03T03:56:24;4.32;;;4.03;;
735;SDS011;352;48.626;9.238;2023-04-03T03:58:51;6.10;;;4.38;;
735;SDS011;352;48.626;9.238;2023-04-03T04:01:18;3.67;;;3.38;;
735;SDS011;352;48.626;9.238;2023-04-03T04:03:45;4.00;;;3.70;;
735;SDS011;352;48.626;9.238;2023-04-03T04:06:13;4.45;;;4.13;;
735;SDS011;352;48.626;9.238;2023-04-03T04:08:40;4.95;;;4.25;;
735;SDS011;352;48.626;9.238;2023-04-03T04:11:07;4.53;;;4.10;;
735;SDS011;352;48.626;9.238;2023-04-03T04:13:34;4.00;;;3.70;;
735;SDS011;352;48.626;9.238;2023-04-03T04:16:01;4.95;;;3.80;;
735;SDS011;352;48.626;9.238;2023-04-03T04:18:27;4.50;;;4.10;;
735;SDS011;352;48.626;9.238;2023-04-03T04:20:54;4.28;;;3.95;;
735;SDS011;352;48.626;9.238;2023-04-03T04:23:22;4.30;;;3.90;;
735;SDS011;352;48.626;9.238;2023-04-03T04:25:49;5.45;;;4.20;;
735;SDS011;352;48.626;9.238;2023-04-03T04:28:16;4.72;;;4.22;;
735;SDS011;352;48.626;9.238;2023-04-03T04:30:43;4.75;;;4.45;;
735;SDS011;352;48.626;9.238;2023-04-03T04:33:09;5.00;;;4.70;;
735;SDS011;352;48.626;9.238;2023-04-03T04:35:36;5.57;;;4.90;;
735;SDS011;352;48.626;9.238;2023-04-03T04:38:03;4.90;;;4.60;;
735;SDS011;352;48.626;9.238;2023-04-03T04:40:31;5.38;;;4.97;;
735;SDS011;352;48.626;9.238;2023-04-03T04:42:59;4.65;;;4.20;;
735;SDS011;352;48.626;9.238;2023-04-03T04:45:25;5.50;;;4.85;;
735;SDS011;352;48.626;9.238;2023-04-03T04:47:54;4.68;;;4.28;;
735;SDS011;352;48.626;9.238;2023-04-03T04:50:21;4.47;;;4.15;;
735;SDS011;352;48.626;9.238;2023-04-03T04:52:47;5.10;;;4.68;;
735;SDS011;352;48.626;9.238;2023-04-03T04:55:14;5.05;;;4.55;;
735;SDS011;352;48.626;9.238;2023-04-03T04:57:42;4.78;;;4.38;;
735;SDS011;352;48.626;9.238;2023-04-03T05:00:09;4.90;;;4.60;;
735;SDS011;352;48.626;9.238;2023-04-03T05:02:37;5.18;;;4.68;;
735;SDS011;352;48.626;9.238;2023-04-03T05:05:04;4.70;;;4.35;;
735;SDS011;352;48.626;9.238;2023-04-03T05:07:31;4.82;;;3.95;;
735;SDS011;352;48.626;9.238;2023-04-03T05:09:57;4.90;;;4.50;;
735;SDS011;352;48.626;9.238;2023-04-03T05:12:24;4.18;;;3.95;;
735;SDS011;352;48.626;9.238;2023-04-03T05:14:52;4.10;;;3.85;;
735;SDS011;352;48.626;9.238;2023-04-03T05:17:19;4.00;;;3.63;;
735;SDS011;352;48.626;9.238;2023-04-03T05:19:46;4.43;;;4.07;;
735;SDS011;352;48.626;9.238;2023-04-03T05:22:12;3.90;;;3.70;;
735;SDS011;352;48.626;9.238;2023-04-03T05:24:40;3.95;;;3.60;;
735;SDS011;352;48.626;9.238;2023-04-03T05:27:06;4.30;;;4.00;;
735;SDS011;352;48.626;9.238;2023-04-03T05:29:33;4.80;;;4.15;;
735;SDS011;352;48.626;9.238;2023-04-03T05:32:01;4.57;;;4.28;;
735;SDS011;352;48.626;9.238;2023-04-03T05:34:28;5.07;;;4.68;;
735;SDS011;352;48.626;9.238;2023-04-03T05:36:54;4.20;;;3.75;;
735;SDS011;352;48.626;9.238;2023-04-03T05:39:21;4.22;;;3.83;;
735;SDS011;352;48.626;9.238;2023-04-03T05:41:49;3.63;;;3.42;;
735;SDS011;352;48.626;9.238;2023-04-03T05:44:15;4.20;;;3.80;;
735;SDS011;352;48.626;9.238;2023-04-03T05:46:42;4.20;;;3.90;;
735;SDS011;352;48.626;9.238;2023-04-03T05:49:10;4.45;;;3.70;;
735;SDS011;352;48.626;9.238;2023-04-03T05:51:37;4.70;;;4.30;;
735;SDS011;352;48.626;9.238;2023-04-03T05:54:06;4.05;;;3.75;;
735;SDS011;352;48.626;9.238;2023-04-03T05:56:38;4.40;;;3.60;;
735;SDS011;352;48.626;9.238;2023-04-03T05:59:05;3.65;;;3.45;;
735;SDS011;352;48.626;9.238;2023-04-03T06:01:32;4.07;;;3.67;;
735;SDS011;352;48.626;9.238;2023-04-03T06:03:59;4.18;;;3.88;;
735;SDS011;352;48.626;9.238;2023-04-03T06:06:27;5.18;;;3.95;;
735;SDS011;352;48.626;9.238;2023-04-03T06:09:09;4.20;;;3.90;;
735;SDS011;352;48.626;9.238;2023-04-03T06:11:36;3.70;;;3.40;;
735;SDS011;352;48.626;9.238;2023-04-03T06:14:02;5.97;;;4.25;;
735;SDS011;352;48.626;9.238;2023-04-03T06:16:29;3.65;;;3.35;;
735;SDS011;352;48.626;9.238;2023-04-03T06:18:56;3.92;;;3.65;;
735;SDS011;352;48.626;9.238;2023-04-03T06:21:22;3.83;;;3.53;;
735;SDS011;352;48.626;9.238;2023-04-03T06:23:50;4.82;;;4.10;;
735;SDS011;352;48.626;9.238;2023-04-03T06:26:17;3.83;;;3.50;;
735;SDS011;352;48.626;9.238;2023-04-03T06:28:44;3.75;;;3.45;;
735;SDS011;352;48.626;9.238;2023-04-03T06:31:10;4.63;;;4.07;;
735;SDS011;352;48.626;9.238;2023-04-03T06:33:37;4.43;;;4.00;;
735;SDS011;352;48.626;9.238;2023-04-03T06:36:04;4.70;;;4.28;;
735;SDS011;352;48.626;9.238;2023-04-03T06:38:32;4.30;;;4.00;;
735;SDS011;352;48.626;9.238;2023-04-03T06:41:01;3.40;;;3.20;;
735;SDS011;352;48.626;9.238;2023-04-03T06:43:27;3.78;;;3.50;;
735;SDS011;352;48.626;9.238;2023-04-03T06:45:56;4.40;;;3.65;;
735;SDS011;352;48.626;9.238;2023-04-03T06:48:23;4.32;;;4.03;;
735;SDS011;352;48.626;9.238;2023-04-03T06:50:50;4.72;;;4.38;;
735;SDS011;352;48.626;9.238;2023-04-03T06:53:17;4.05;;;3.80;;
735;SDS011;352;48.626;9.238;2023-04-03T06:55:43;3.92;;;3.63;;
735;SDS011;352;48.626;9.238;2023-04-03T06:58:13;3.47;;;3.28;;
735;SDS011;352;48.626;9.238;2023-04-03T07:00:42;4.20;;;3.83;;
735;SDS011;352;48.626;9.238;2023-04-03T07:03:09;4.00;;;3.70;;
735;SDS011;352;48.626;9.238;2023-04-03T07:05:35;4.20;;;3.45;;
735;SDS011;352;48.626;9.238;2023-04-03T07:08:02;3.75;;;3.42;;
735;SDS011;352;48.626;9.238;2023-04-03T07:10:29;3.13;;;2.92;;
735;SDS011;352;48.626;9.238;2023-04-03T07:12:56;3.80;;;3.60;;
735;SDS011;352;48.626;9.238;2023-04-03T07:15:24;4.22;;;3.85;;
735;SDS011;352;48.626;9.238;2023-04-03T07:17:51;3.90;;;3.47;;
735;SDS011;352;48.626;9.238;2023-04-03T07:20:18;3.45;;;3.17;;
735;SDS011;352;48.626;9.238;2023-04-03T07:22:44;3.80;;;3.50;;
735;SDS011;352;48.626;9.238;2023-04-03T07:25:11;4.32;;;3.92;;
735;SDS011;352;48.626;9.238;2023-04-03T07:27:38;4.57;;;4.18;;
735;SDS011;352;48.626;9.238;2023-04-03T07:30:05;3.50;;;3.20;;
735;SDS011;352;48.626;9.238;2023-04-03T07:32:34;5.18;;;3.65;;
735;SDS011;352;48.626;9.238;2023-04-03T07:35:01;4.20;;;3.80;;
735;SDS011;352;48.626;9.238;2023-04-03T07:37:29;4.75;;;3.92;;
735;SDS011;352;48.626;9.238;2023-04-03T07:39:55;3.70;;;3.45;;
735;SDS011;352;48.626;9.238;2023-04-03T07:42:24;4.63;;;4.20;;
735;SDS011;352;48.626;9.238;2023-04-03T07:44:52;4.00;;;3.70;;
735;SDS011;352;48.626;9.238;2023-04-03T07:47:19;4.40;;;4.00;;
735;SDS011;352;48.626;9.238;2023-04-03T07:49:47;3.33;;;3.13;;
735;SDS011;352;48.626;9.238;2023-04-03T07:52:14;3.80;;;3.60;;
735;SDS011;352;48.626;9.238;2023-04-03T07:54:41;3.75;;;3.45;;
735;SDS011;352;48.626;9.238;2023-04-03T07:57:08;4.10;;;3.80;;
735;SDS011;352;48.626;9.238;2023-04-03T07:59:34;6.40;;;4.40;;
735;SDS011;352;48.626;9.238;2023-04-03T08:02:01;3.65;;;3.35;;
735;SDS011;352;48.626;9.238;2023-04-03T08:04:29;4.43;;;4.03;;
735;SDS011;352;48.626;9.238;2023-04-03T08:06:58;3.63;;;3.28;;
735;SDS011;352;48.626;9.238;2023-04-03T08:09:24;3.83;;;3.50;;
735;SDS011;352;48.626;9.238;2023-04-03T08:11:51;5.35;;;4.28;;
735;SDS011;352;48.626;9.238;2023-04-03T08:14:18;4.05;;;3.75;;
735;SDS011;352;48.626;9.238;2023-04-03T08:16:45;4.03;;;3.72;;
735;SDS011;352;48.626;9.238;2023-04-03T08:19:13;4.93;;;4.40;;
735;SDS011;352;48.626;9.238;2023-04-03T08:21:42;4.05;;;3.72;;
735;SDS011;352;48.626;9.238;2023-04-03T08:24:11;4.07;;;3.50;;
735;SDS011;352;48.626;9.238;2023-04-03T08:26:38;5.15;;;4.20;;
735;SDS011;352;48.626;9.238;2023-04-03T08:29:04;4.55;;;4.15;;
735;SDS011;352;48.626;9.238;2023-04-03T08:31:31;4.82;;;4.43;;
735;SDS011;352;48.626;9.238;2023-04-03T08:33:58;4.00;;;3.80;;
735;SDS011;352;48.626;9.238;2023-04-03T08:36:25;6.32;;;4.13;;
735;SDS011;352;48.626;9.238;2023-04-03T08:38:54;4.50;;;3.88;;
735;SDS011;352;48.626;9.238;2023-04-03T08:41:25;4.55;;;3.72;;
735;SDS011;352;48.626;9.238;2023-04-03T08:46:56;7.93;;;3.90;;
735;SDS011;352;48.626;9.238;2023-04-03T08:49:30;3.97;;;3.67;;
735;SDS011;352;48.626;9.238;2023-04-03T08:52:01;3.80;;;3.50;;
735;SDS011;352;48.626;9.238;2023-04-03T08:54:32;4.68;;;4.13;;
735;SDS011;352;48.626;9.238;2023-04-03T08:57:03;4.20;;;3.78;;
735;SDS011;352;48.626;9.238;2023-04-03T08:59:32;3.85;;;3.55;;
735;SDS011;352;48.626;9.238;2023-04-03T09:02:04;3.95;;;3.65;;
735;SDS011;352;48.626;9.238;2023-04-03T09:04:42;4.18;;;3.88;;
735;SDS011;352;48.626;9.238;2023-04-03T09:07:12;3.70;;;3.33;;
735;SDS011;352;48.626;9.238;2023-04-03T09:09:42;3.50;;;3.20;;
735;SDS011;352;48.626;9.238;2023-04-03T09:12:15;4.30;;;3.90;;
735;SDS011;352;48.626;9.238;2023-04-03T09:14:50;3.80;;;3.50;;
735;SDS011;352;48.626;9.238;2023-04-03T09:17:26;3.35;;;3.15;;
735;SDS011;352;48.626;9.238;2023-04-03T09:20:04;4.70;;;4.30;;
735;SDS011;352;48.626;9.238;2023-04-03T09:22:41;4.72;;;3.95;;
735;SDS011;352;48.626;9.238;2023-04-03T09:25:10;4.63;;;3.83;;
735;SDS011;352;48.626;9.238;2023-04-03T09:27:40;4.28;;;3.50;;
735;SDS011;352;48.626;9.238;2023-04-03T09:30:11;4.60;;;4.30;;
735;SDS011;352;48.626;9.238;2023-04-03T09:32:40;4.70;;;4.40;;
735;SDS011;352;48.626;9.238;2023-04-03T09:35:15;3.95;;;3.55;;
735;SDS011;352;48.626;9.238;2023-04-03T09:37:47;4.53;;;4.10;;
735;SDS011;352;48.626;9.238;2023-04-03T09:40:27;4.13;;;3.75;;
735;SDS011;352;48.626;9.238;2023-04-03T09:43:01;4.30;;;4.00;;
735;SDS011;352;48.626;9.238;2023-04-03T09:45:45;4.45;;;4.05;;
735;SDS011;352;48.626;9.238;2023-04-03T09:48:15;4.25;;;3.80;;
735;SDS011;352;48.626;9.238;2023-04-03T09:50:54;4.60;;;4.03;;
735;SDS011;352;48.626;9.238;2023-04-03T09:53:31;4.45;;;3.65;;
735;SDS011;352;48.626;9.238;2023-04-03T09:56:01;4.13;;;3.70;;
735;SDS011;352;48.626;9.238;2023-04-03T09:58:31;4.68;;;3.83;;
735;SDS011;352;48.626;9.238;2023-04-03T10:01:01;3.97;;;3.55;;
735;SDS011;352;48.626;9.238;2023-04-03T10:03:29;3.95;;;3.67;;
735;SDS011;352;48.626;9.238;2023-04-03T10:05:59;4.50;;;4.20;;
735;SDS011;352;48.626;9.238;2023-04-03T10:08:28;4.00;;;3.63;;
735;SDS011;352;48.626;9.238;2023-04-03T10:11:06;4.10;;;3.80;;
735;SDS011;352;48.626;9.238;2023-04-03T10:13:36;3.75;;;3.42;;
735;SDS011;352;48.626;9.238;2023-04-03T10:16:17;3.45;;;3.25;;
735;SDS011;352;48.626;9.238;2023-04-03T10:18:48;3.42;;;3.22;;
735;SDS011;352;48.626;9.238;2023-04-03T10:21:26;3.20;;;3.00;;
735;SDS011;352;48.626;9.238;2023-04-03T10:24:03;3.85;;;3.45;;
735;SDS011;352;48.626;9.238;2023-04-03T10:26:37;4.35;;;3.95;;
735;SDS011;352;48.626;9.238;2023-04-03T10:29:13;3.33;;;3.10;;
735;SDS011;352;48.626;9.238;2023-04-03T10:31:51;3.97;;;2.90;;
735;SDS011;352;48.626;9.238;2023-04-03T10:34:24;5.57;;;3.05;;
735;SDS011;352;48.626;9.238;2023-04-03T10:36:56;3.85;;;3.10;;
735;SDS011;352;48.626;9.238;2023-04-03T10:39:32;3.17;;;2.92;;
735;SDS011;352;48.626;9.238;2023-04-03T10:42:07;2.67;;;2.47;;
735;SDS011;352;48.626;9.238;2023-04-03T10:44:42;3.10;;;2.90;;
735;SDS011;352;48.626;9.238;2023-04-03T10:47:28;2.78;;;2.58;;
735;SDS011;352;48.626;9.238;2023-04-03T10:50:02;3.03;;;2.83;;
735;SDS011;352;48.626;9.238;2023-04-03T10:52:47;4.15;;;2.80;;
735;SDS011;352;48.626;9.238;2023-04-03T10:55:21;7.57;;;5.78;;
735;SDS011;352;48.626;9.238;2023-04-03T10:57:57;3.95;;;3.65;;
735;SDS011;352;48.626;9.238;2023-04-03T11:00:30;3.42;;;2.88;;
735;SDS011;352;48.626;9.238;2023-04-03T11:03:03;3.75;;;2.72;;
735;SDS011;352;48.626;9.238;2023-04-03T11:05:36;2.95;;;2.70;;
735;SDS011;352;48.626;9.238;2023-04-03T11:08:25;2.90;;;2.70;;
735;SDS011;352;48.626;9.238;2023-04-03T11:10:55;4.10;;;3.13;;
735;SDS011;352;48.626;9.238;2023-04-03T11:13:27;2.78;;;2.60;;
735;SDS011;352;48.626;9.238;2023-04-03T11:16:00;3.38;;;2.80;;
735;SDS011;352;48.626;9.238;2023-04-03T11:18:28;3.20;;;2.60;;
735;SDS011;352;48.626;9.238;2023-04-03T11:21:03;3.10;;;2.90;;
735;SDS011;352;48.626;9.238;2023-04-03T11:23:34;2.95;;;2.63;;
735;SDS011;352;48.626;9.238;2023-04-03T11:26:06;3.35;;;3.05;;
735;SDS011;352;48.626;9.238;2023-04-03T11:28:41;3.45;;;3.20;;
735;SDS011;352;48.626;9.238;2023-04-03T11:31:13;3.25;;;2.95;;
735;SDS011;352;48.626;9.238;2023-04-03T11:33:51;3.15;;;3.05;;
735;SDS011;352;48.626;9.238;2023-04-03T11:36:26;3.30;;;3.00;;
735;SDS011;352;48.626;9.238;2023-04-03T11:38:56;3.40;;;3.10;;
735;SDS011;352;48.626;9.238;2023-04-03T11:41:26;5.60;;;3.45;;
735;SDS011;352;48.626;9.238;2023-04-03T11:43:56;2.88;;;2.30;;
735;SDS011;352;48.626;9.238;2023-04-03T11:58:22;3.95;;;2.70;;
735;SDS011;352;48.626;9.238;2023-04-03T12:00:54;2.60;;;2.40;;
735;SDS011;352;48.626;9.238;2023-04-03T12:09:35;2.67;;;2.47;;
735;SDS011;352;48.626;9.238;2023-04-03T12:12:33;2.75;;;2.40;;
735;SDS011;352;48.626;9.238;2023-04-03T12:17:45;3.28;;;2.95;;
735;SDS011;352;48.626;9.238;2023-04-03T12:23:24;3.20;;;3.00;;
735;SDS011;352;48.626;9.238;2023-04-03T12:25:53;2.90;;;2.70;;
735;SDS011;352;48.626;9.238;2023-04-03T12:28:28;2.95;;;2.75;;
735;SDS011;352;48.626;9.238;2023-04-03T12:30:55;3.25;;;3.05;;
735;SDS011;352;48.626;9.238;2023-04-03T12:33:24;3.08;;;2.88;;
735;SDS011;352;48.626;9.238;2023-04-03T12:36:03;4.88;;;2.90;;
735;SDS011;352;48.626;9.238;2023-04-03T12:38:44;3.75;;;3.45;;
735;SDS011;352;48.626;9.238;2023-04-03T12:41:30;3.67;;;3.10;;
735;SDS011;352;48.626;9.238;2023-04-03T12:44:09;3.40;;;3.10;;
735;SDS011;352;48.626;9.238;2023-04-03T12:46:48;3.03;;;2.80;;
735;SDS011;352;48.626;9.238;2023-04-03T12:49:22;3.15;;;2.72;;
735;SDS011;352;48.626;9.238;2023-04-03T12:51:58;3.00;;;2.80;;
735;SDS011;352;48.626;9.238;2023-04-03T12:54:29;2.70;;;2.50;;
735;SDS011;352;48.626;9.238;2023-04-03T12:57:11;2.92;;;2.72;;
735;SDS011;352;48.626;9.238;2023-04-03T12:59:42;3.38;;;3.00;;
735;SDS011;352;48.626;9.238;2023-04-03T13:02:17;4.75;;;2.78;;
735;SDS011;352;48.626;9.238;2023-04-03T13:04:48;3.42;;;2.70;;
735;SDS011;352;48.626;9.238;2023-04-03T13:07:20;3.75;;;3.10;;
735;SDS011;352;48.626;9.238;2023-04-03T13:10:02;4.13;;;2.70;;
735;SDS011;352;48.626;9.238;2023-04-03T13:12:45;3.72;;;2.40;;
735;SDS011;352;48.626;9.238;2023-04-03T13:15:15;2.83;;;2.63;;
735;SDS011;352;48.626;9.238;2023-04-03T13:17:43;4.13;;;3.30;;
735;SDS011;352;48.626;9.238;2023-04-03T13:20:13;3.50;;;3.20;;
735;SDS011;352;48.626;9.238;2023-04-03T13:22:46;3.25;;;2.95;;
735;SDS011;352;48.626;9.238;2023-04-03T13:25:18;4.22;;;3.30;;
735;SDS011;352;48.626;9.238;2023-04-03T13:27:46;3.60;;;3.30;;
735;SDS011;352;48.626;9.238;2023-04-03T13:30:27;3.65;;;3.00;;
735;SDS011;352;48.626;9.238;2023-04-03T13:32:55;3.70;;;3.40;;
735;SDS011;352;48.626;9.238;2023-04-03T13:35:28;3.45;;;3.20;;
735;SDS011;352;48.626;9.238;2023-04-03T13:37:58;3.10;;;2.90;;
735;SDS011;352;48.626;9.238;2023-04-03T13:40:30;3.40;;;3.10;;
735;SDS011;352;48.626;9.238;2023-04-03T13:43:04;3.25;;;3.05;;
735;SDS011;352;48.626;9.238;2023-04-03T13:45:53;3.63;;;3.33;;
735;SDS011;352;48.626;9.238;2023-04-03T13:48:21;2.95;;;2.63;;
735;SDS011;352;48.626;9.238;2023-04-03T13:50:52;3.72;;;3.20;;
735;SDS011;352;48.626;9.238;2023-04-03T13:53:24;2.70;;;2.50;;
735;SDS011;352;48.626;9.238;2023-04-03T13:55:55;3.05;;;2.80;;
735;SDS011;352;48.626;9.238;2023-04-03T13:58:25;4.50;;;2.92;;
735;SDS011;352;48.626;9.238;2023-04-03T14:00:54;2.83;;;2.30;;
735;SDS011;352;48.626;9.238;2023-04-03T14:03:23;3.20;;;3.00;;
735;SDS011;352;48.626;9.238;2023-04-03T14:05:52;3.50;;;2.85;;
735;SDS011;352;48.626;9.238;2023-04-03T14:08:19;3.55;;;2.63;;
735;SDS011;352;48.626;9.238;2023-04-03T14:10:47;2.65;;;2.45;;
735;SDS011;352;48.626;9.238;2023-04-03T14:13:16;3.42;;;3.20;;
735;SDS011;352;48.626;9.238;2023-04-03T14:15:45;3.20;;;2.90;;
735;SDS011;352;48.626;9.238;2023-04-03T14:18:13;3.42;;;3.10;;
735;SDS011;352;48.626;9.238;2023-04-03T14:20:42;2.85;;;2.65;;
735;SDS011;352;48.626;9.238;2023-04-03T14:23:09;3.13;;;2.83;;
735;SDS011;352;48.626;9.238;2023-04-03T14:25:36;4.03;;;3.22;;
735;SDS011;352;48.626;9.238;2023-04-03T14:28:06;2.80;;;2.60;;
735;SDS011;352;48.626;9.238;2023-04-03T14:30:42;3.63;;;3.28;;
735;SDS011;352;48.626;9.238;2023-04-03T14:33:10;2.90;;;2.70;;
735;SDS011;352;48.626;9.238;2023-04-03T14:35:39;3.05;;;2.85;;
735;SDS011;352;48.626;9.238;2023-04-03T14:38:11;3.22;;;2.92;;
735;SDS011;352;48.626;9.238;2023-04-03T14:40:45;3.22;;;3.00;;
735;SDS011;352;48.626;9.238;2023-04-03T14:43:12;3.30;;;3.10;;
735;SDS011;352;48.626;9.238;2023-04-03T14:45:41;2.65;;;2.45;;
735;SDS011;352;48.626;9.238;2023-04-03T14:48:09;2.55;;;2.30;;
735;SDS011;352;48.626;9.238;2023-04-03T14:50:41;2.47;;;2.30;;
735;SDS011;352;48.626;9.238;2023-04-03T14:53:10;5.78;;;3.50;;
735;SDS011;352;48.626;9.238;2023-04-03T14:55:39;3.00;;;2.80;;
735;SDS011;352;48.626;9.238;2023-04-03T14:58:08;2.95;;;2.75;;
735;SDS011;352;48.626;9.238;2023-04-03T15:00:38;3.10;;;2.80;;
735;SDS011;352;48.626;9.238;2023-04-03T15:03:08;3.20;;;2.90;;
735;SDS011;352;48.626;9.238;2023-04-03T15:05:39;3.03;;;2.72;;
735;SDS011;352;48.626;9.238;2023-04-03T15:08:08;2.80;;;2.60;;
735;SDS011;352;48.626;9.238;2023-04-03T15:10:47;2.90;;;2.58;;
735;SDS011;352;48.626;9.238;2023-04-03T15:13:15;3.63;;;2.97;;
735;SDS011;352;48.626;9.238;2023-04-03T15:15:42;3.05;;;2.85;;
735;SDS011;352;48.626;9.238;2023-04-03T15:18:15;3.38;;;3.17;;
735;SDS011;352;48.626;9.238;2023-04-03T15:20:44;4.20;;;2.92;;
735;SDS011;352;48.626;9.238;2023-04-03T15:23:12;3.55;;;3.30;;
735;SDS011;352;48.626;9.238;2023-04-03T15:25:41;3.75;;;3.45;;
735;SDS011;352;48.626;9.238;2023-04-03T15:28:09;3.10;;;2.90;;
735;SDS011;352;48.626;9.238;2023-04-03T15:30:41;3.13;;;2.92;;
735;SDS011;352;48.626;9.238;2023-04-03T15:33:08;3.40;;;3.10;;
735;SDS011;352;48.626;9.238;2023-04-03T15:35:36;5.15;;;4.63;;
735;SDS011;352;48.626;9.238;2023-04-03T15:38:02;3.28;;;2.97;;
735;SDS011;352;48.626;9.238;2023-04-03T15:40:29;3.65;;;3.22;;
735;SDS011;352;48.626;9.238;2023-04-03T15:42:56;3.78;;;3.08;;
735;SDS011;352;48.626;9.238;2023-04-03T15:45:22;2.90;;;2.70;;
735;SDS011;352;48.626;9.238;2023-04-03T15:47:49;3.35;;;3.05;;
735;SDS011;352;48.626;9.238;2023-04-03T15:50:17;5.22;;;3.28;;
735;SDS011;352;48.626;9.238;2023-04-03T15:52:45;2.58;;;2.38;;
735;SDS011;352;48.626;9.238;2023-04-03T15:55:11;2.83;;;2.63;;
735;SDS011;352;48.626;9.238;2023-04-03T15:57:38;3.45;;;3.15;;
735;SDS011;352;48.626;9.238;2023-04-03T16:00:08;3.55;;;3.25;;
735;SDS011;352;48.626;9.238;2023-04-03T16:02:36;4.05;;;3.72;;
735;SDS011;352;48.626;9.238;2023-04-03T16:05:02;3.00;;;2.70;;
735;SDS011;352;48.626;9.238;2023-04-03T16:07:29;5.18;;;3.72;;
735;SDS011;352;48.626;9.238;2023-04-03T16:10:05;3.13;;;2.90;;
735;SDS011;352;48.626;9.238;2023-04-03T16:16:19;3.60;;;3.30;;
735;SDS011;352;48.626;9.238;2023-04-03T16:19:03;4.35;;;3.83;;
735;SDS011;352;48.626;9.238;2023-04-03T16:21:31;4.72;;;3.20;;
735;SDS011;352;48.626;9.238;2023-04-03T16:23:58;3.55;;;2.90;;
735;SDS011;352;48.626;9.238;2023-04-03T16:26:30;3.03;;;2.83;;
735;SDS011;352;48.626;9.238;2023-04-03T16:29:00;4.82;;;4.43;;
735;SDS011;352;48.626;9.238;2023-04-03T16:31:27;4.30;;;4.00;;
735;SDS011;352;48.626;9.238;2023-04-03T16:33:54;4.88;;;4.50;;